sensor_id;sensor_type;location;lat;lon;timestamp;temperature;humidity
26964;DHT22;14521;48.148;-1.656;2023-03-23T00:00:22;19.30;94.60
26964;DHT22;14521;48.148;-1.656;2023-03-23T00:03:44;19.30;94.60
26964;DHT22;14521;48.148;-1.656;2023-03-23T00:07:05;19.30;94.60
26964;DHT22;14521;48.148;-1.656;2023-03-23T00:10:26;19.30;94.60
26964;DHT22;14521;48.148;-1.656;2023-03-23T00:13:49;19.30;94.50
26964;DHT22;14521;48.148;-1.656;2023-03-23T00:17:12;19.30;94.50
26964;DHT22;14521;48.148;-1.656;2023-03-23T00:20:35;19.30;94.60
26964;DHT22;14521;48.148;-1.656;2023-03-23T00:24:23;19.30;94.50
26964;DHT22;14521;48.148;-1.656;2023-03-23T00:27:43;19.30;94.70
26964;DHT22;14521;48.148;-1.656;2023-03-23T00:31:07;19.30;94.60
26964;DHT22;14521;48.148;-1.656;2023-03-23T00:34:29;19.20;94.80
26964;DHT22;14521;48.148;-1.656;2023-03-23T00:37:54;19.20;94.60
26964;DHT22;14521;48.148;-1.656;2023-03-23T00:41:16;19.20;94.70
26964;DHT22;14521;48.148;-1.656;2023-03-23T00:44:37;19.20;94.70
26964;DHT22;14521;48.148;-1.656;2023-03-23T00:47:58;19.20;94.60
26964;DHT22;14521;48.148;-1.656;2023-03-23T00:51:25;19.20;94.70
26964;DHT22;14521;48.148;-1.656;2023-03-23T00:54:46;19.20;94.70
26964;DHT22;14521;48.148;-1.656;2023-03-23T00:58:11;19.20;94.80
26964;DHT22;14521;48.148;-1.656;2023-03-23T01:01:33;19.10;94.70
26964;DHT22;14521;48.148;-1.656;2023-03-23T01:04:54;19.20;94.60
26964;DHT22;14521;48.148;-1.656;2023-03-23T01:08:15;19.20;94.60
26964;DHT22;14521;48.148;-1.656;2023-03-23T01:11:37;19.10;94.50
26964;DHT22;14521;48.148;-1.656;2023-03-23T01:15:00;19.10;94.60
26964;DHT22;14521;48.148;-1.656;2023-03-23T01:18:21;19.10;94.60
26964;DHT22;14521;48.148;-1.656;2023-03-23T01:21:42;19.10;94.60
26964;DHT22;14521;48.148;-1.656;2023-03-23T01:25:05;19.10;94.70
26964;DHT22;14521;48.148;-1.656;2023-03-23T01:28:26;19.10;94.70
26964;DHT22;14521;48.148;-1.656;2023-03-23T01:31:48;19.10;94.60
26964;DHT22;14521;48.148;-1.656;2023-03-23T01:35:09;19.10;94.70
26964;DHT22;14521;48.148;-1.656;2023-03-23T01:38:32;19.10;94.60
26964;DHT22;14521;48.148;-1.656;2023-03-23T01:41:53;19.10;94.40
26964;DHT22;14521;48.148;-1.656;2023-03-23T01:48:41;19.10;94.50
26964;DHT22;14521;48.148;-1.656;2023-03-23T01:52:06;19.00;94.50
26964;DHT22;14521;48.148;-1.656;2023-03-23T01:55:30;19.10;94.50
26964;DHT22;14521;48.148;-1.656;2023-03-23T01:58:53;19.10;94.40
26964;DHT22;14521;48.148;-1.656;2023-03-23T02:02:17;19.10;94.50
26964;DHT22;14521;48.148;-1.656;2023-03-23T02:05:41;19.10;94.50
26964;DHT22;14521;48.148;-1.656;2023-03-23T02:09:25;19.10;94.50
26964;DHT22;14521;48.148;-1.656;2023-03-23T02:12:47;19.10;94.60
26964;DHT22;14521;48.148;-1.656;2023-03-23T02:19:58;19.10;94.30
26964;DHT22;14521;48.148;-1.656;2023-03-23T02:24:08;19.00;94.40
26964;DHT22;14521;48.148;-1.656;2023-03-23T02:27:46;19.10;94.50
26964;DHT22;14521;48.148;-1.656;2023-03-23T02:34:56;19.00;94.50
26964;DHT22;14521;48.148;-1.656;2023-03-23T02:38:25;19.00;94.50
26964;DHT22;14521;48.148;-1.656;2023-03-23T02:41:56;19.00;94.40
26964;DHT22;14521;48.148;-1.656;2023-03-23T02:45:21;19.00;94.40
26964;DHT22;14521;48.148;-1.656;2023-03-23T02:48:44;19.00;94.50
26964;DHT22;14521;48.148;-1.656;2023-03-23T02:52:12;19.00;94.40
26964;DHT22;14521;48.148;-1.656;2023-03-23T02:55:39;19.00;94.50
26964;DHT22;14521;48.148;-1.656;2023-03-23T02:59:05;19.00;94.50
26964;DHT22;14521;48.148;-1.656;2023-03-23T03:02:27;19.00;94.50
26964;DHT22;14521;48.148;-1.656;2023-03-23T03:09:46;19.00;94.40
26964;DHT22;14521;48.148;-1.656;2023-03-23T03:13:19;19.00;94.40
26964;DHT22;14521;48.148;-1.656;2023-03-23T03:17:00;19.00;94.40
26964;DHT22;14521;48.148;-1.656;2023-03-23T03:20:25;19.00;94.40
26964;DHT22;14521;48.148;-1.656;2023-03-23T03:23:48;19.00;94.40
26964;DHT22;14521;48.148;-1.656;2023-03-23T03:27:18;19.00;94.40
26964;DHT22;14521;48.148;-1.656;2023-03-23T03:30:54;19.00;94.40
26964;DHT22;14521;48.148;-1.656;2023-03-23T03:34:16;19.00;94.40
26964;DHT22;14521;48.148;-1.656;2023-03-23T03:37:41;19.00;94.40
26964;DHT22;14521;48.148;-1.656;2023-03-23T03:41:03;19.00;94.40
26964;DHT22;14521;48.148;-1.656;2023-03-23T03:44:24;19.00;94.30
26964;DHT22;14521;48.148;-1.656;2023-03-23T03:47:45;19.00;94.30
26964;DHT22;14521;48.148;-1.656;2023-03-23T03:51:07;18.90;94.30
26964;DHT22;14521;48.148;-1.656;2023-03-23T03:54:32;19.00;94.30
26964;DHT22;14521;48.148;-1.656;2023-03-23T03:57:54;19.00;94.30
26964;DHT22;14521;48.148;-1.656;2023-03-23T04:01:37;18.90;94.40
26964;DHT22;14521;48.148;-1.656;2023-03-23T04:04:58;19.00;94.30
26964;DHT22;14521;48.148;-1.656;2023-03-23T04:08:20;18.90;94.30
26964;DHT22;14521;48.148;-1.656;2023-03-23T04:11:43;18.90;94.20
26964;DHT22;14521;48.148;-1.656;2023-03-23T04:15:25;18.90;94.40
26964;DHT22;14521;48.148;-1.656;2023-03-23T04:18:46;18.90;94.20
26964;DHT22;14521;48.148;-1.656;2023-03-23T04:22:10;18.90;94.20
26964;DHT22;14521;48.148;-1.656;2023-03-23T04:25:32;18.90;94.20
26964;DHT22;14521;48.148;-1.656;2023-03-23T04:29:00;18.90;94.30
26964;DHT22;14521;48.148;-1.656;2023-03-23T04:32:28;18.90;94.20
26964;DHT22;14521;48.148;-1.656;2023-03-23T04:35:51;18.90;94.30
26964;DHT22;14521;48.148;-1.656;2023-03-23T04:39:23;18.90;94.30
26964;DHT22;14521;48.148;-1.656;2023-03-23T04:42:47;18.90;94.30
26964;DHT22;14521;48.148;-1.656;2023-03-23T04:46:26;18.90;94.10
26964;DHT22;14521;48.148;-1.656;2023-03-23T04:49:52;18.90;94.30
26964;DHT22;14521;48.148;-1.656;2023-03-23T04:53:20;18.90;94.20
26964;DHT22;14521;48.148;-1.656;2023-03-23T04:56:43;18.90;94.10
26964;DHT22;14521;48.148;-1.656;2023-03-23T05:00:08;18.90;94.10
26964;DHT22;14521;48.148;-1.656;2023-03-23T05:03:35;18.90;94.10
26964;DHT22;14521;48.148;-1.656;2023-03-23T05:06:58;18.90;94.00
26964;DHT22;14521;48.148;-1.656;2023-03-23T05:10:23;18.90;93.90
26964;DHT22;14521;48.148;-1.656;2023-03-23T05:13:47;18.90;93.90
26964;DHT22;14521;48.148;-1.656;2023-03-23T05:17:09;18.90;93.80
26964;DHT22;14521;48.148;-1.656;2023-03-23T05:20:30;19.00;93.80
26964;DHT22;14521;48.148;-1.656;2023-03-23T05:23:56;19.00;93.70
26964;DHT22;14521;48.148;-1.656;2023-03-23T05:27:22;19.10;93.50
26964;DHT22;14521;48.148;-1.656;2023-03-23T05:30:45;19.10;93.50
26964;DHT22;14521;48.148;-1.656;2023-03-23T05:34:09;19.10;93.40
26964;DHT22;14521;48.148;-1.656;2023-03-23T05:37:38;19.20;93.30
26964;DHT22;14521;48.148;-1.656;2023-03-23T05:41:02;19.20;93.20
26964;DHT22;14521;48.148;-1.656;2023-03-23T05:44:32;19.20;93.20
26964;DHT22;14521;48.148;-1.656;2023-03-23T05:47:55;19.30;93.10
26964;DHT22;14521;48.148;-1.656;2023-03-23T05:51:20;19.30;93.10
26964;DHT22;14521;48.148;-1.656;2023-03-23T05:54:42;19.30;93.00
26964;DHT22;14521;48.148;-1.656;2023-03-23T05:58:04;19.40;93.00
26964;DHT22;14521;48.148;-1.656;2023-03-23T06:01:30;19.40;93.00
26964;DHT22;14521;48.148;-1.656;2023-03-23T06:04:53;19.40;93.00
26964;DHT22;14521;48.148;-1.656;2023-03-23T06:08:24;19.40;92.90
26964;DHT22;14521;48.148;-1.656;2023-03-23T06:11:46;19.40;92.90
26964;DHT22;14521;48.148;-1.656;2023-03-23T06:15:31;19.50;93.00
26964;DHT22;14521;48.148;-1.656;2023-03-23T06:19:10;19.50;93.00
26964;DHT22;14521;48.148;-1.656;2023-03-23T06:22:38;19.50;93.00
26964;DHT22;14521;48.148;-1.656;2023-03-23T06:26:08;19.50;92.90
26964;DHT22;14521;48.148;-1.656;2023-03-23T06:29:32;19.50;93.40
26964;DHT22;14521;48.148;-1.656;2023-03-23T06:32:53;19.50;93.60
26964;DHT22;14521;48.148;-1.656;2023-03-23T06:36:33;19.50;93.30
26964;DHT22;14521;48.148;-1.656;2023-03-23T06:40:02;19.50;93.20
26964;DHT22;14521;48.148;-1.656;2023-03-23T06:43:32;19.60;93.30
26964;DHT22;14521;48.148;-1.656;2023-03-23T06:47:08;19.60;92.90
26964;DHT22;14521;48.148;-1.656;2023-03-23T06:50:32;19.60;92.90
26964;DHT22;14521;48.148;-1.656;2023-03-23T06:53:54;19.70;93.10
26964;DHT22;14521;48.148;-1.656;2023-03-23T06:57:16;19.70;92.50
26964;DHT22;14521;48.148;-1.656;2023-03-23T07:00:40;19.70;92.30
26964;DHT22;14521;48.148;-1.656;2023-03-23T07:04:04;19.70;92.50
26964;DHT22;14521;48.148;-1.656;2023-03-23T07:07:37;19.70;92.80
26964;DHT22;14521;48.148;-1.656;2023-03-23T07:11:15;19.70;92.90
26964;DHT22;14521;48.148;-1.656;2023-03-23T07:14:36;19.70;92.50
26964;DHT22;14521;48.148;-1.656;2023-03-23T07:17:58;19.70;93.90
26964;DHT22;14521;48.148;-1.656;2023-03-23T07:21:27;19.80;92.60
26964;DHT22;14521;48.148;-1.656;2023-03-23T07:24:49;19.70;93.10
26964;DHT22;14521;48.148;-1.656;2023-03-23T07:28:19;19.70;93.30
26964;DHT22;14521;48.148;-1.656;2023-03-23T07:31:42;19.70;94.00
26964;DHT22;14521;48.148;-1.656;2023-03-23T07:35:04;19.70;94.00
26964;DHT22;14521;48.148;-1.656;2023-03-23T07:38:35;19.80;94.40
26964;DHT22;14521;48.148;-1.656;2023-03-23T07:41:58;19.80;94.90
26964;DHT22;14521;48.148;-1.656;2023-03-23T07:45:35;19.80;95.40
26964;DHT22;14521;48.148;-1.656;2023-03-23T07:48:57;19.70;95.20
26964;DHT22;14521;48.148;-1.656;2023-03-23T07:52:25;19.70;93.00
26964;DHT22;14521;48.148;-1.656;2023-03-23T07:55:46;19.70;92.70
26964;DHT22;14521;48.148;-1.656;2023-03-23T07:59:25;19.70;92.80
26964;DHT22;14521;48.148;-1.656;2023-03-23T08:02:52;19.70;92.70
26964;DHT22;14521;48.148;-1.656;2023-03-23T08:06:24;19.60;92.70
26964;DHT22;14521;48.148;-1.656;2023-03-23T08:10:13;19.60;93.40
26964;DHT22;14521;48.148;-1.656;2023-03-23T08:13:54;19.60;93.40
26964;DHT22;14521;48.148;-1.656;2023-03-23T08:17:34;19.60;93.30
26964;DHT22;14521;48.148;-1.656;2023-03-23T08:21:29;19.60;93.60
26964;DHT22;14521;48.148;-1.656;2023-03-23T08:25:11;19.60;93.20
26964;DHT22;14521;48.148;-1.656;2023-03-23T08:28:54;19.60;93.40
26964;DHT22;14521;48.148;-1.656;2023-03-23T08:32:16;19.60;93.20
26964;DHT22;14521;48.148;-1.656;2023-03-23T08:35:37;19.60;93.30
26964;DHT22;14521;48.148;-1.656;2023-03-23T08:39:27;19.60;93.10
26964;DHT22;14521;48.148;-1.656;2023-03-23T08:43:08;19.60;93.20
26964;DHT22;14521;48.148;-1.656;2023-03-23T08:47:08;19.60;93.40
26964;DHT22;14521;48.148;-1.656;2023-03-23T08:50:59;19.60;93.10
26964;DHT22;14521;48.148;-1.656;2023-03-23T08:54:42;19.60;93.40
26964;DHT22;14521;48.148;-1.656;2023-03-23T08:58:28;19.60;93.30
26964;DHT22;14521;48.148;-1.656;2023-03-23T09:02:10;19.50;93.40
26964;DHT22;14521;48.148;-1.656;2023-03-23T09:05:48;19.50;93.40
26964;DHT22;14521;48.148;-1.656;2023-03-23T09:09:32;19.50;93.60
26964;DHT22;14521;48.148;-1.656;2023-03-23T09:12:55;19.50;93.80
26964;DHT22;14521;48.148;-1.656;2023-03-23T09:16:16;19.50;93.50
26964;DHT22;14521;48.148;-1.656;2023-03-23T09:19:38;19.40;93.50
26964;DHT22;14521;48.148;-1.656;2023-03-23T09:22:59;19.40;93.60
26964;DHT22;14521;48.148;-1.656;2023-03-23T09:26:21;19.40;93.60
26964;DHT22;14521;48.148;-1.656;2023-03-23T09:29:42;19.40;93.50
26964;DHT22;14521;48.148;-1.656;2023-03-23T09:33:05;19.40;93.50
26964;DHT22;14521;48.148;-1.656;2023-03-23T09:36:26;19.40;93.50
26964;DHT22;14521;48.148;-1.656;2023-03-23T09:39:50;19.40;93.70
26964;DHT22;14521;48.148;-1.656;2023-03-23T09:51:04;19.40;93.60
26964;DHT22;14521;48.148;-1.656;2023-03-23T09:54:36;19.40;93.60
26964;DHT22;14521;48.148;-1.656;2023-03-23T09:58:03;19.40;93.50
26964;DHT22;14521;48.148;-1.656;2023-03-23T10:01:40;19.40;93.50
26964;DHT22;14521;48.148;-1.656;2023-03-23T10:08:55;19.40;93.10
26964;DHT22;14521;48.148;-1.656;2023-03-23T10:12:59;19.40;93.30
26964;DHT22;14521;48.148;-1.656;2023-03-23T10:16:26;19.40;93.40
26964;DHT22;14521;48.148;-1.656;2023-03-23T10:30:56;19.40;93.20
26964;DHT22;14521;48.148;-1.656;2023-03-23T10:38:17;19.40;93.10
26964;DHT22;14521;48.148;-1.656;2023-03-23T10:41:39;19.40;93.40
26964;DHT22;14521;48.148;-1.656;2023-03-23T10:45:11;19.40;93.00
26964;DHT22;14521;48.148;-1.656;2023-03-23T10:48:37;19.40;93.00
26964;DHT22;14521;48.148;-1.656;2023-03-23T10:52:52;19.30;92.90
26964;DHT22;14521;48.148;-1.656;2023-03-23T10:56:40;19.30;92.80
26964;DHT22;14521;48.148;-1.656;2023-03-23T11:00:23;19.30;93.00
26964;DHT22;14521;48.148;-1.656;2023-03-23T11:03:48;19.30;93.00
26964;DHT22;14521;48.148;-1.656;2023-03-23T11:07:18;19.30;93.00
26964;DHT22;14521;48.148;-1.656;2023-03-23T11:10:47;19.30;93.00
26964;DHT22;14521;48.148;-1.656;2023-03-23T11:14:15;19.30;92.80
26964;DHT22;14521;48.148;-1.656;2023-03-23T11:17:36;19.30;92.90
26964;DHT22;14521;48.148;-1.656;2023-03-23T11:20:58;19.30;92.90
26964;DHT22;14521;48.148;-1.656;2023-03-23T11:24:26;19.30;92.80
26964;DHT22;14521;48.148;-1.656;2023-03-23T11:27:49;19.30;92.90
26964;DHT22;14521;48.148;-1.656;2023-03-23T11:31:10;19.30;92.90
26964;DHT22;14521;48.148;-1.656;2023-03-23T11:34:34;19.30;93.00
26964;DHT22;14521;48.148;-1.656;2023-03-23T11:37:58;19.30;92.90
26964;DHT22;14521;48.148;-1.656;2023-03-23T11:41:22;19.20;92.90
26964;DHT22;14521;48.148;-1.656;2023-03-23T11:44:44;19.20;92.90
26964;DHT22;14521;48.148;-1.656;2023-03-23T11:48:44;19.20;92.90
26964;DHT22;14521;48.148;-1.656;2023-03-23T11:52:07;19.20;93.00
26964;DHT22;14521;48.148;-1.656;2023-03-23T11:55:55;19.20;92.80
26964;DHT22;14521;48.148;-1.656;2023-03-23T11:59:19;19.20;92.90
26964;DHT22;14521;48.148;-1.656;2023-03-23T12:14:29;19.20;92.70
26964;DHT22;14521;48.148;-1.656;2023-03-23T12:44:10;19.20;92.70
26964;DHT22;14521;48.148;-1.656;2023-03-23T12:54:36;19.20;92.50
26964;DHT22;14521;48.148;-1.656;2023-03-23T12:58:09;19.30;92.60
26964;DHT22;14521;48.148;-1.656;2023-03-23T13:01:36;19.30;92.60
26964;DHT22;14521;48.148;-1.656;2023-03-23T13:05:04;19.30;92.50
26964;DHT22;14521;48.148;-1.656;2023-03-23T13:08:32;19.30;92.60
26964;DHT22;14521;48.148;-1.656;2023-03-23T13:11:57;19.30;92.40
26964;DHT22;14521;48.148;-1.656;2023-03-23T13:22:35;19.30;92.40
26964;DHT22;14521;48.148;-1.656;2023-03-23T13:26:03;19.30;92.40
26964;DHT22;14521;48.148;-1.656;2023-03-23T13:29:27;19.30;92.30
26964;DHT22;14521;48.148;-1.656;2023-03-23T13:32:49;19.30;92.30
26964;DHT22;14521;48.148;-1.656;2023-03-23T13:36:14;19.30;92.20
26964;DHT22;14521;48.148;-1.656;2023-03-23T13:40:11;19.30;92.20
26964;DHT22;14521;48.148;-1.656;2023-03-23T13:43:37;19.30;92.20
26964;DHT22;14521;48.148;-1.656;2023-03-23T13:50:57;19.30;92.10
26964;DHT22;14521;48.148;-1.656;2023-03-23T13:54:29;19.30;92.10
26964;DHT22;14521;48.148;-1.656;2023-03-23T13:57:52;19.20;91.80
26964;DHT22;14521;48.148;-1.656;2023-03-23T14:01:19;19.20;91.70
26964;DHT22;14521;48.148;-1.656;2023-03-23T14:04:54;19.20;91.60
26964;DHT22;14521;48.148;-1.656;2023-03-23T14:12:14;19.20;91.40
26964;DHT22;14521;48.148;-1.656;2023-03-23T14:15:54;19.20;91.20
26964;DHT22;14521;48.148;-1.656;2023-03-23T14:19:25;19.20;91.30
26964;DHT22;14521;48.148;-1.656;2023-03-23T14:22:46;19.20;91.10
26964;DHT22;14521;48.148;-1.656;2023-03-23T14:26:15;19.20;90.90
26964;DHT22;14521;48.148;-1.656;2023-03-23T14:29:37;19.20;91.10
26964;DHT22;14521;48.148;-1.656;2023-03-23T14:33:04;19.20;90.90
26964;DHT22;14521;48.148;-1.656;2023-03-23T14:36:29;19.20;90.90
26964;DHT22;14521;48.148;-1.656;2023-03-23T14:39:53;19.20;90.90
26964;DHT22;14521;48.148;-1.656;2023-03-23T14:43:17;19.10;90.80
26964;DHT22;14521;48.148;-1.656;2023-03-23T14:46:42;19.10;90.80
26964;DHT22;14521;48.148;-1.656;2023-03-23T14:50:05;19.20;91.50
26964;DHT22;14521;48.148;-1.656;2023-03-23T14:53:35;19.20;91.20
26964;DHT22;14521;48.148;-1.656;2023-03-23T14:57:05;19.20;91.30
26964;DHT22;14521;48.148;-1.656;2023-03-23T15:00:33;19.20;91.30
26964;DHT22;14521;48.148;-1.656;2023-03-23T15:04:18;19.20;91.60
26964;DHT22;14521;48.148;-1.656;2023-03-23T15:07:43;19.20;91.30
26964;DHT22;14521;48.148;-1.656;2023-03-23T15:14:47;19.20;91.50
26964;DHT22;14521;48.148;-1.656;2023-03-23T15:18:35;19.20;91.30
26964;DHT22;14521;48.148;-1.656;2023-03-23T15:22:11;19.20;91.60
26964;DHT22;14521;48.148;-1.656;2023-03-23T15:25:35;19.20;91.60
26964;DHT22;14521;48.148;-1.656;2023-03-23T15:32:38;19.10;92.00
26964;DHT22;14521;48.148;-1.656;2023-03-23T15:36:07;19.10;92.10
26964;DHT22;14521;48.148;-1.656;2023-03-23T15:39:29;19.10;92.20
26964;DHT22;14521;48.148;-1.656;2023-03-23T15:43:06;19.10;92.20
26964;DHT22;14521;48.148;-1.656;2023-03-23T15:46:28;19.10;92.20
26964;DHT22;14521;48.148;-1.656;2023-03-23T15:53:46;19.10;92.40
26964;DHT22;14521;48.148;-1.656;2023-03-23T15:57:09;19.10;92.50
26964;DHT22;14521;48.148;-1.656;2023-03-23T16:00:31;19.10;92.60
26964;DHT22;14521;48.148;-1.656;2023-03-23T16:04:04;19.10;92.70
26964;DHT22;14521;48.148;-1.656;2023-03-23T16:07:27;19.00;92.80
26964;DHT22;14521;48.148;-1.656;2023-03-23T16:10:49;19.10;92.80
26964;DHT22;14521;48.148;-1.656;2023-03-23T16:14:11;19.10;92.80
26964;DHT22;14521;48.148;-1.656;2023-03-23T16:17:34;19.10;92.70
26964;DHT22;14521;48.148;-1.656;2023-03-23T16:20:56;19.00;92.70
26964;DHT22;14521;48.148;-1.656;2023-03-23T16:24:18;19.00;92.70
26964;DHT22;14521;48.148;-1.656;2023-03-23T16:27:41;19.00;92.80
26964;DHT22;14521;48.148;-1.656;2023-03-23T16:31:04;19.00;92.80
26964;DHT22;14521;48.148;-1.656;2023-03-23T16:34:26;19.00;92.80
26964;DHT22;14521;48.148;-1.656;2023-03-23T16:37:53;19.00;92.90
26964;DHT22;14521;48.148;-1.656;2023-03-23T16:41:30;19.00;93.00
26964;DHT22;14521;48.148;-1.656;2023-03-23T16:44:52;19.00;93.10
26964;DHT22;14521;48.148;-1.656;2023-03-23T16:48:16;19.00;93.00
26964;DHT22;14521;48.148;-1.656;2023-03-23T16:51:38;19.00;93.10
26964;DHT22;14521;48.148;-1.656;2023-03-23T16:55:03;19.00;93.10
26964;DHT22;14521;48.148;-1.656;2023-03-23T16:58:25;19.00;93.20
26964;DHT22;14521;48.148;-1.656;2023-03-23T17:01:47;19.00;93.20
26964;DHT22;14521;48.148;-1.656;2023-03-23T17:05:10;19.00;93.40
26964;DHT22;14521;48.148;-1.656;2023-03-23T17:08:33;19.00;93.40
26964;DHT22;14521;48.148;-1.656;2023-03-23T17:11:55;19.00;93.40
26964;DHT22;14521;48.148;-1.656;2023-03-23T17:15:20;19.00;93.70
26964;DHT22;14521;48.148;-1.656;2023-03-23T17:18:45;19.00;93.70
26964;DHT22;14521;48.148;-1.656;2023-03-23T17:22:07;19.00;93.70
26964;DHT22;14521;48.148;-1.656;2023-03-23T17:25:30;19.00;93.70
26964;DHT22;14521;48.148;-1.656;2023-03-23T17:28:52;19.00;93.80
26964;DHT22;14521;48.148;-1.656;2023-03-23T17:32:15;19.10;93.90
26964;DHT22;14521;48.148;-1.656;2023-03-23T17:35:38;19.10;93.90
26964;DHT22;14521;48.148;-1.656;2023-03-23T17:39:00;19.10;93.80
26964;DHT22;14521;48.148;-1.656;2023-03-23T17:42:22;19.10;93.80
26964;DHT22;14521;48.148;-1.656;2023-03-23T17:45:45;19.20;93.80
26964;DHT22;14521;48.148;-1.656;2023-03-23T17:49:08;19.20;93.70
26964;DHT22;14521;48.148;-1.656;2023-03-23T17:52:30;19.20;94.30
26964;DHT22;14521;48.148;-1.656;2023-03-23T17:55:54;19.30;93.90
26964;DHT22;14521;48.148;-1.656;2023-03-23T17:59:17;19.30;94.70
26964;DHT22;14521;48.148;-1.656;2023-03-23T18:02:39;19.40;93.80
26964;DHT22;14521;48.148;-1.656;2023-03-23T18:06:04;19.50;93.70
26964;DHT22;14521;48.148;-1.656;2023-03-23T18:09:27;19.50;93.70
26964;DHT22;14521;48.148;-1.656;2023-03-23T18:12:49;19.60;93.50
26964;DHT22;14521;48.148;-1.656;2023-03-23T18:16:14;19.70;93.80
26964;DHT22;14521;48.148;-1.656;2023-03-23T18:19:37;19.70;93.30
26964;DHT22;14521;48.148;-1.656;2023-03-23T18:22:59;19.70;93.40
26964;DHT22;14521;48.148;-1.656;2023-03-23T18:26:21;19.70;93.50
26964;DHT22;14521;48.148;-1.656;2023-03-23T18:29:44;19.70;94.10
26964;DHT22;14521;48.148;-1.656;2023-03-23T18:33:06;19.80;94.10
26964;DHT22;14521;48.148;-1.656;2023-03-23T18:36:28;19.80;93.80
26964;DHT22;14521;48.148;-1.656;2023-03-23T18:39:51;19.80;94.00
26964;DHT22;14521;48.148;-1.656;2023-03-23T18:43:14;19.80;94.50
26964;DHT22;14521;48.148;-1.656;2023-03-23T18:46:36;19.80;94.60
26964;DHT22;14521;48.148;-1.656;2023-03-23T18:49:59;19.80;94.70
26964;DHT22;14521;48.148;-1.656;2023-03-23T18:53:22;19.90;95.00
26964;DHT22;14521;48.148;-1.656;2023-03-23T18:56:45;19.80;94.90
26964;DHT22;14521;48.148;-1.656;2023-03-23T19:00:07;19.80;95.30
26964;DHT22;14521;48.148;-1.656;2023-03-23T19:03:31;19.90;95.10
26964;DHT22;14521;48.148;-1.656;2023-03-23T19:06:53;19.80;94.50
26964;DHT22;14521;48.148;-1.656;2023-03-23T19:10:15;19.80;94.60
26964;DHT22;14521;48.148;-1.656;2023-03-23T19:13:38;19.80;95.10
26964;DHT22;14521;48.148;-1.656;2023-03-23T19:17:11;19.90;95.20
26964;DHT22;14521;48.148;-1.656;2023-03-23T19:20:34;19.90;95.40
26964;DHT22;14521;48.148;-1.656;2023-03-23T19:24:16;19.90;95.40
26964;DHT22;14521;48.148;-1.656;2023-03-23T19:27:38;19.80;97.50
26964;DHT22;14521;48.148;-1.656;2023-03-23T19:31:21;19.70;97.80
26964;DHT22;14521;48.148;-1.656;2023-03-23T19:34:46;19.70;97.10
26964;DHT22;14521;48.148;-1.656;2023-03-23T19:38:12;19.70;97.00
26964;DHT22;14521;48.148;-1.656;2023-03-23T19:41:34;19.60;96.90
26964;DHT22;14521;48.148;-1.656;2023-03-23T19:44:57;19.60;96.30
26964;DHT22;14521;48.148;-1.656;2023-03-23T19:48:19;19.70;96.00
26964;DHT22;14521;48.148;-1.656;2023-03-23T19:51:41;19.70;95.70
26964;DHT22;14521;48.148;-1.656;2023-03-23T19:55:04;19.70;95.70
26964;DHT22;14521;48.148;-1.656;2023-03-23T19:58:27;19.80;96.10
26964;DHT22;14521;48.148;-1.656;2023-03-23T20:01:49;19.80;96.00
26964;DHT22;14521;48.148;-1.656;2023-03-23T20:05:12;19.70;96.30
26964;DHT22;14521;48.148;-1.656;2023-03-23T20:08:35;19.70;96.40
26964;DHT22;14521;48.148;-1.656;2023-03-23T20:11:58;19.80;96.40
26964;DHT22;14521;48.148;-1.656;2023-03-23T20:15:20;19.70;96.50
26964;DHT22;14521;48.148;-1.656;2023-03-23T20:18:43;19.70;96.20
26964;DHT22;14521;48.148;-1.656;2023-03-23T20:22:07;19.70;95.90
26964;DHT22;14521;48.148;-1.656;2023-03-23T20:25:29;19.70;95.50
26964;DHT22;14521;48.148;-1.656;2023-03-23T20:28:52;19.70;95.60
26964;DHT22;14521;48.148;-1.656;2023-03-23T20:32:14;19.70;95.40
26964;DHT22;14521;48.148;-1.656;2023-03-23T20:35:37;19.70;95.90
26964;DHT22;14521;48.148;-1.656;2023-03-23T20:39:00;19.70;95.60
26964;DHT22;14521;48.148;-1.656;2023-03-23T20:42:25;19.70;95.80
26964;DHT22;14521;48.148;-1.656;2023-03-23T20:45:50;19.70;95.60
26964;DHT22;14521;48.148;-1.656;2023-03-23T20:49:13;19.70;95.90
26964;DHT22;14521;48.148;-1.656;2023-03-23T20:52:37;19.70;96.40
26964;DHT22;14521;48.148;-1.656;2023-03-23T20:56:03;19.70;95.70
26964;DHT22;14521;48.148;-1.656;2023-03-23T20:59:26;19.70;95.70
26964;DHT22;14521;48.148;-1.656;2023-03-23T21:02:49;19.70;95.70
26964;DHT22;14521;48.148;-1.656;2023-03-23T21:06:15;19.70;95.90
26964;DHT22;14521;48.148;-1.656;2023-03-23T21:09:41;19.70;95.90
26964;DHT22;14521;48.148;-1.656;2023-03-23T21:13:04;19.70;95.80
26964;DHT22;14521;48.148;-1.656;2023-03-23T21:16:27;19.70;95.80
26964;DHT22;14521;48.148;-1.656;2023-03-23T21:19:50;19.60;95.70
26964;DHT22;14521;48.148;-1.656;2023-03-23T21:23:12;19.60;95.80
26964;DHT22;14521;48.148;-1.656;2023-03-23T21:26:36;19.50;96.00
26964;DHT22;14521;48.148;-1.656;2023-03-23T21:29:59;19.50;95.40
26964;DHT22;14521;48.148;-1.656;2023-03-23T21:33:22;19.60;95.60
26964;DHT22;14521;48.148;-1.656;2023-03-23T21:36:44;19.60;95.40
26964;DHT22;14521;48.148;-1.656;2023-03-23T21:40:10;19.60;95.30
26964;DHT22;14521;48.148;-1.656;2023-03-23T21:43:34;19.50;95.10
26964;DHT22;14521;48.148;-1.656;2023-03-23T21:46:57;19.50;95.00
26964;DHT22;14521;48.148;-1.656;2023-03-23T21:50:22;19.50;94.50
26964;DHT22;14521;48.148;-1.656;2023-03-23T21:53:46;19.50;94.40
26964;DHT22;14521;48.148;-1.656;2023-03-23T21:57:08;19.50;94.20
26964;DHT22;14521;48.148;-1.656;2023-03-23T22:00:31;19.50;94.30
26964;DHT22;14521;48.148;-1.656;2023-03-23T22:03:53;19.50;94.40
26964;DHT22;14521;48.148;-1.656;2023-03-23T22:07:15;19.50;94.40
26964;DHT22;14521;48.148;-1.656;2023-03-23T22:10:41;19.50;94.40
26964;DHT22;14521;48.148;-1.656;2023-03-23T22:14:22;19.40;94.30
26964;DHT22;14521;48.148;-1.656;2023-03-23T22:17:44;19.50;94.20
26964;DHT22;14521;48.148;-1.656;2023-03-23T22:21:07;19.40;94.10
26964;DHT22;14521;48.148;-1.656;2023-03-23T22:24:30;19.40;94.10
26964;DHT22;14521;48.148;-1.656;2023-03-23T22:27:52;19.40;94.00
26964;DHT22;14521;48.148;-1.656;2023-03-23T22:31:19;19.40;94.00
26964;DHT22;14521;48.148;-1.656;2023-03-23T22:34:43;19.40;94.00
26964;DHT22;14521;48.148;-1.656;2023-03-23T22:38:05;19.40;93.90
26964;DHT22;14521;48.148;-1.656;2023-03-23T22:41:33;19.30;93.80
26964;DHT22;14521;48.148;-1.656;2023-03-23T22:44:56;19.40;93.80
26964;DHT22;14521;48.148;-1.656;2023-03-23T22:48:20;19.30;93.70
26964;DHT22;14521;48.148;-1.656;2023-03-23T22:51:44;19.40;93.70
26964;DHT22;14521;48.148;-1.656;2023-03-23T22:55:07;19.30;93.60
26964;DHT22;14521;48.148;-1.656;2023-03-23T22:58:29;19.30;93.60
26964;DHT22;14521;48.148;-1.656;2023-03-23T23:01:52;19.30;93.60
26964;DHT22;14521;48.148;-1.656;2023-03-23T23:05:14;19.30;93.60
26964;DHT22;14521;48.148;-1.656;2023-03-23T23:08:37;19.30;93.60
26964;DHT22;14521;48.148;-1.656;2023-03-23T23:12:00;19.30;93.60
26964;DHT22;14521;48.148;-1.656;2023-03-23T23:15:22;19.20;93.60